createdAt,value
2019-04-03T00:01:20.775Z,27.40
2019-04-03T00:03:49.091Z,29.17
2019-04-03T00:06:16.503Z,32.83
2019-04-03T00:08:43.124Z,29.60
2019-04-03T00:11:11.591Z,27.30
2019-04-03T00:13:41.549Z,31.60
2019-04-03T00:16:08.072Z,30.03
2019-04-03T00:18:35.320Z,24.83
2019-04-03T00:21:02.798Z,25.80
2019-04-03T00:23:29.827Z,28.27
2019-04-03T00:25:56.815Z,23.80
2019-04-03T00:28:23.471Z,33.63
2019-04-03T00:30:51.163Z,33.37
2019-04-03T00:33:19.360Z,26.63
2019-04-03T00:35:46.604Z,26.53
2019-04-03T00:38:14.154Z,26.17
2019-04-03T00:40:41.511Z,26.87
2019-04-03T00:43:08.244Z,26.47
2019-04-03T00:45:35.499Z,25.37
2019-04-03T00:48:02.446Z,29.93
2019-04-03T00:50:29.736Z,24.50
2019-04-03T00:52:57.440Z,24.13
2019-04-03T00:55:26.526Z,23.63
2019-04-03T00:57:56.076Z,30.27
2019-04-03T01:00:22.491Z,28.77
2019-04-03T01:02:49.859Z,23.43
2019-04-03T01:05:16.621Z,27.37
2019-04-03T01:07:43.249Z,30.60
2019-04-03T01:10:09.880Z,29.63
2019-04-03T01:12:36.612Z,27.10
2019-04-03T01:15:03.782Z,26.93
2019-04-03T01:17:30.491Z,24.57
2019-04-03T01:19:57.460Z,27.90
2019-04-03T01:22:24.155Z,31.17
2019-04-03T01:24:50.833Z,28.20
2019-04-03T01:27:17.560Z,30.47
2019-04-03T01:29:44.296Z,27.60
2019-04-03T01:32:10.928Z,30.90
2019-04-03T01:34:37.783Z,31.23
2019-04-03T01:37:04.564Z,28.20
2019-04-03T01:39:31.399Z,30.73
2019-04-03T01:41:58.089Z,29.13
2019-04-03T01:44:25.329Z,28.07
2019-04-03T01:46:52.266Z,24.93
2019-04-03T01:49:18.963Z,26.60
2019-04-03T01:51:46.291Z,28.00
2019-04-03T01:54:13.235Z,27.47
2019-04-03T01:56:40.907Z,33.27
2019-04-03T01:59:07.845Z,28.60
2019-04-03T02:01:35.044Z,29.30
2019-04-03T02:04:01.706Z,28.73
2019-04-03T02:06:28.602Z,36.87
2019-04-03T02:08:55.639Z,29.47
2019-04-03T02:11:23.079Z,31.47
2019-04-03T02:13:51.330Z,28.67
2019-04-03T02:16:19.154Z,28.27
2019-04-03T02:18:45.970Z,30.30
2019-04-03T02:21:13.314Z,34.53
2019-04-03T02:23:40.571Z,33.50
2019-04-03T02:26:07.279Z,36.50
2019-04-03T02:28:34.943Z,29.30
2019-04-03T02:31:02.331Z,34.43
2019-04-03T02:33:29.605Z,29.83
2019-04-03T02:35:58.740Z,26.90
2019-04-03T02:38:25.525Z,30.63
2019-04-03T02:40:52.245Z,30.50
2019-04-03T02:43:19.232Z,31.57
2019-04-03T02:45:45.846Z,35.17
2019-04-03T02:48:12.480Z,32.67
2019-04-03T02:50:39.110Z,34.43
2019-04-03T02:53:06.440Z,30.77
2019-04-03T02:55:33.499Z,34.80
2019-04-03T02:58:00.691Z,32.67
2019-04-03T03:00:31.591Z,33.80
2019-04-03T03:02:57.574Z,36.53
2019-04-03T03:05:27.278Z,32.37
2019-04-03T03:07:53.214Z,29.97
2019-04-03T03:10:20.360Z,31.40
2019-04-03T03:12:47.412Z,34.30
2019-04-03T03:15:14.718Z,32.63
2019-04-03T03:17:41.810Z,33.43
2019-04-03T03:20:09.097Z,29.63
2019-04-03T03:22:38.916Z,41.37
2019-04-03T03:25:06.187Z,37.23
2019-04-03T03:27:33.443Z,30.77
2019-04-03T03:30:01.379Z,30.30
2019-04-03T03:32:32.335Z,30.40
2019-04-03T03:35:10.848Z,34.67
2019-04-03T03:37:25.614Z,33.70
2019-04-03T03:39:52.840Z,29.30
2019-04-03T03:42:19.503Z,32.03
2019-04-03T03:44:47.041Z,33.47
2019-04-03T03:47:14.727Z,31.80
2019-04-03T03:49:42.760Z,30.07
2019-04-03T03:52:09.872Z,34.17
2019-04-03T03:54:37.607Z,37.00
2019-04-03T03:57:06.810Z,35.43
2019-04-03T03:59:33.951Z,36.17
2019-04-03T04:02:03.483Z,33.20
2019-04-03T04:04:29.884Z,35.57
2019-04-03T04:06:57.653Z,37.67
2019-04-03T04:09:25.726Z,36.40
2019-04-03T04:11:52.816Z,39.67
2019-04-03T04:14:22.533Z,36.70
2019-04-03T04:16:49.283Z,34.77
2019-04-03T04:19:15.893Z,36.57
2019-04-03T04:21:44.438Z,37.27
2019-04-03T04:24:12.307Z,41.90
2019-04-03T04:26:39.456Z,34.90
2019-04-03T04:29:06.407Z,45.23
2019-04-03T04:31:35.187Z,43.60
2019-04-03T04:34:01.898Z,40.13
2019-04-03T04:36:28.757Z,41.93
2019-04-03T04:38:55.808Z,41.03
2019-04-03T04:41:24.160Z,35.43
2019-04-03T04:43:52.370Z,41.90
2019-04-03T04:46:19.246Z,43.37
2019-04-03T04:48:45.935Z,46.37
2019-04-03T04:51:12.670Z,41.67
2019-04-03T04:53:39.343Z,41.20
2019-04-03T04:56:06.519Z,45.63
2019-04-03T04:58:34.006Z,43.87
2019-04-03T05:01:00.630Z,43.13
2019-04-03T05:03:27.547Z,41.10
2019-04-03T05:05:57.359Z,35.77
2019-04-03T05:08:23.359Z,43.37
2019-04-03T05:10:49.986Z,42.90
2019-04-03T05:13:16.797Z,60.90
2019-04-03T05:15:44.156Z,36.97
2019-04-03T05:18:11.058Z,37.27
2019-04-03T05:20:38.498Z,41.10
2019-04-03T05:23:05.536Z,34.50
2019-04-03T05:25:33.239Z,35.77
2019-04-03T05:28:00.710Z,33.60
2019-04-03T05:30:28.981Z,40.53
2019-04-03T05:32:55.975Z,34.20
2019-04-03T05:35:22.599Z,38.97
2019-04-03T05:37:50.924Z,35.70
2019-04-03T05:40:18.103Z,41.90
2019-04-03T05:42:45.088Z,35.50
2019-04-03T05:45:12.647Z,39.40
2019-04-03T05:47:39.919Z,33.40
2019-04-03T05:50:06.953Z,33.50
2019-04-03T05:52:35.147Z,41.67
2019-04-03T05:55:02.735Z,46.93
2019-04-03T05:57:29.980Z,41.00
2019-04-03T06:00:01.053Z,43.40
2019-04-03T06:02:25.868Z,38.37
2019-04-03T06:04:54.067Z,36.93
2019-04-03T06:07:21.399Z,41.73
2019-04-03T06:09:48.460Z,37.93
2019-04-03T06:12:18.259Z,39.33
2019-04-03T06:14:43.935Z,37.63
2019-04-03T06:17:11.767Z,32.37
2019-04-03T06:19:39.812Z,33.90
2019-04-03T06:22:09.639Z,35.63
2019-04-03T06:24:35.319Z,38.70
2019-04-03T06:27:03.914Z,43.97
2019-04-03T06:29:31.679Z,34.57
2019-04-03T06:31:58.776Z,35.93
2019-04-03T06:34:25.922Z,39.97
2019-04-03T06:36:53.807Z,35.80
2019-04-03T06:39:23.421Z,36.30
2019-04-03T06:41:50.307Z,34.63
2019-04-03T06:44:17.956Z,33.33
2019-04-03T06:46:44.906Z,39.47
2019-04-03T06:49:12.351Z,35.93
2019-04-03T06:51:40.040Z,37.97
2019-04-03T06:54:08.234Z,33.07
2019-04-03T06:56:35.883Z,34.23
2019-04-03T06:59:02.907Z,36.60
2019-04-03T07:01:29.855Z,37.37
2019-04-03T07:03:56.471Z,36.00
2019-04-03T07:06:23.538Z,34.77
2019-04-03T07:08:50.794Z,37.30
2019-04-03T07:11:23.741Z,35.70
2019-04-03T07:13:48.267Z,36.90
2019-04-03T07:16:15.744Z,35.33
2019-04-03T07:18:43.072Z,39.77
2019-04-03T07:21:10.037Z,39.43
2019-04-03T07:23:40.338Z,36.67
2019-04-03T07:26:08.098Z,34.10
2019-04-03T07:28:35.251Z,33.37
2019-04-03T07:31:05.288Z,36.80
2019-04-03T07:33:32.414Z,32.90
2019-04-03T07:35:59.767Z,37.03
2019-04-03T07:38:26.388Z,30.40
2019-04-03T07:40:54.029Z,37.60
2019-04-03T07:43:21.833Z,31.50
2019-04-03T07:45:49.191Z,39.57
2019-04-03T07:48:16.443Z,34.57
2019-04-03T07:50:43.695Z,35.70
2019-04-03T07:53:10.949Z,32.00
2019-04-03T07:55:38.920Z,38.90
2019-04-03T07:58:06.211Z,38.67
2019-04-03T08:00:33.220Z,36.87
2019-04-03T08:03:00.207Z,36.40
2019-04-03T08:05:30.178Z,35.87
2019-04-03T08:07:56.567Z,37.00
2019-04-03T08:10:23.867Z,33.13
2019-04-03T08:12:50.932Z,33.27
2019-04-03T08:15:18.218Z,36.47
2019-04-03T08:17:45.216Z,32.07
2019-04-03T08:20:12.572Z,35.43
2019-04-03T08:22:39.307Z,34.47
2019-04-03T08:25:06.571Z,35.13
2019-04-03T08:27:35.046Z,33.13
2019-04-03T08:30:02.454Z,39.20
2019-04-03T08:32:30.669Z,30.13
2019-04-03T08:34:57.768Z,30.00
2019-04-03T08:37:30.637Z,28.73
2019-04-03T08:39:57.670Z,33.70
2019-04-03T08:42:24.235Z,34.50
2019-04-03T08:44:51.182Z,36.30
2019-04-03T08:47:18.395Z,35.50
2019-04-03T08:49:45.427Z,35.87
2019-04-03T08:52:14.380Z,33.87
2019-04-03T08:54:42.659Z,32.50
2019-04-03T08:57:09.892Z,27.77
2019-04-03T08:59:36.793Z,32.30
2019-04-03T09:02:03.755Z,30.03
2019-04-03T09:04:30.979Z,32.77
2019-04-03T09:06:57.930Z,30.47
2019-04-03T09:09:24.541Z,33.83
2019-04-03T09:11:52.843Z,32.43
2019-04-03T09:14:20.360Z,32.40
2019-04-03T09:16:47.557Z,32.20
2019-04-03T09:19:16.815Z,36.73
2019-04-03T09:21:42.699Z,30.63
2019-04-03T09:24:09.313Z,30.40
2019-04-03T09:26:38.070Z,31.80
2019-04-03T09:29:04.507Z,27.57
2019-04-03T09:31:31.298Z,30.77
2019-04-03T09:33:59.358Z,30.13
2019-04-03T09:36:26.086Z,28.60
2019-04-03T09:38:53.040Z,27.93
2019-04-03T09:41:20.827Z,35.23
2019-04-03T09:43:49.246Z,28.43
2019-04-03T09:46:16.117Z,30.83
2019-04-03T09:48:44.185Z,29.70
2019-04-03T09:51:10.790Z,29.63
2019-04-03T09:53:38.890Z,35.67
2019-04-03T09:56:08.002Z,28.70
2019-04-03T09:58:35.703Z,26.73
2019-04-03T10:01:02.803Z,29.30
2019-04-03T10:03:31.246Z,29.37
2019-04-03T10:06:00.156Z,25.40
2019-04-03T10:08:27.603Z,31.60
2019-04-03T10:10:54.474Z,34.10
2019-04-03T10:13:24.527Z,31.60
2019-04-03T10:15:50.460Z,28.07
2019-04-03T10:18:17.679Z,32.43
2019-04-03T10:20:44.323Z,30.83
2019-04-03T10:23:11.043Z,30.90
2019-04-03T10:25:38.066Z,37.57
2019-04-03T10:28:05.637Z,37.57
2019-04-03T10:30:32.344Z,36.87
2019-04-03T10:33:00.123Z,38.80
2019-04-03T10:35:27.593Z,41.93
2019-04-03T10:37:54.427Z,37.50
2019-04-03T10:40:23.402Z,35.80
2019-04-03T10:42:50.603Z,34.30
2019-04-03T10:45:17.442Z,35.63
2019-04-03T10:47:44.825Z,39.97
2019-04-03T10:50:11.643Z,41.33
2019-04-03T10:52:38.262Z,38.87
2019-04-03T10:55:06.918Z,40.17
2019-04-03T10:57:34.774Z,35.47
2019-04-03T11:00:02.512Z,36.40
2019-04-03T11:02:30.816Z,39.53
2019-04-03T11:04:59.821Z,32.30
2019-04-03T11:07:26.243Z,31.90
2019-04-03T11:09:53.267Z,32.30
2019-04-03T11:12:20.182Z,37.30
2019-04-03T11:14:48.219Z,30.23
2019-04-03T11:17:15.979Z,30.80
2019-04-03T11:19:44.376Z,32.27
2019-04-03T11:22:11.581Z,34.80
2019-04-03T11:24:41.902Z,32.23
2019-04-03T11:27:07.131Z,32.77
2019-04-03T11:29:34.361Z,30.10
2019-04-03T11:32:01.929Z,28.50
2019-04-03T11:34:28.961Z,30.93
2019-04-03T11:36:55.666Z,31.17
2019-04-03T11:39:22.299Z,30.40
2019-04-03T11:41:49.295Z,31.70
2019-04-03T11:44:15.951Z,32.50
2019-04-03T11:46:42.571Z,27.13
2019-04-03T11:49:10.619Z,31.60
2019-04-03T11:51:37.391Z,28.83
2019-04-03T11:54:06.787Z,28.83
2019-04-03T11:56:32.930Z,30.37
2019-04-03T11:58:59.808Z,33.47
2019-04-03T12:01:26.598Z,31.73
2019-04-03T12:03:53.719Z,32.30
2019-04-03T12:06:21.278Z,28.37
2019-04-03T12:08:49.030Z,31.10
2019-04-03T12:11:16.234Z,27.07
2019-04-03T12:13:45.169Z,27.27
2019-04-03T12:16:11.856Z,26.10
2019-04-03T12:18:39.325Z,28.50
2019-04-03T12:21:10.453Z,23.57
2019-04-03T12:23:39.319Z,22.40
2019-04-03T12:26:05.302Z,22.73
2019-04-03T12:28:32.023Z,22.47
2019-04-03T12:30:59.334Z,26.43
2019-04-03T12:33:25.960Z,28.47
2019-04-03T12:35:52.894Z,27.30
2019-04-03T12:38:22.275Z,27.50
2019-04-03T12:40:49.236Z,24.80
2019-04-03T12:43:15.851Z,22.20
2019-04-03T12:45:42.521Z,24.33
2019-04-03T12:48:10.097Z,23.47
2019-04-03T12:50:37.221Z,27.20
2019-04-03T12:53:03.899Z,24.90
2019-04-03T12:55:31.322Z,30.03
2019-04-03T12:57:58.412Z,23.57
2019-04-03T13:00:25.335Z,23.80
2019-04-03T13:02:52.889Z,32.13
2019-04-03T13:05:20.635Z,28.40
2019-04-03T13:07:47.715Z,28.97
2019-04-03T13:10:14.921Z,33.60
2019-04-03T13:12:41.563Z,29.80
2019-04-03T13:15:09.301Z,29.60
2019-04-03T13:17:36.525Z,32.70
2019-04-03T13:20:05.810Z,31.00
2019-04-03T13:22:32.479Z,29.37
2019-04-03T13:24:59.518Z,31.93
2019-04-03T13:27:26.708Z,33.53
2019-04-03T13:29:53.896Z,30.67
2019-04-03T13:32:22.734Z,34.33
2019-04-03T13:34:49.460Z,30.90
2019-04-03T13:37:16.451Z,29.90
2019-04-03T13:39:43.400Z,29.77
2019-04-03T13:42:11.320Z,32.20
2019-04-03T13:44:39.776Z,34.37
2019-04-03T13:47:08.205Z,27.50
2019-04-03T13:49:35.670Z,33.27
2019-04-03T13:52:08.059Z,31.67
2019-04-03T13:54:31.562Z,28.63
2019-04-03T13:56:58.884Z,31.77
2019-04-03T13:59:27.187Z,34.40
2019-04-03T14:01:55.328Z,36.37
2019-04-03T14:04:22.770Z,30.33
2019-04-03T14:06:50.527Z,32.23
2019-04-03T14:09:17.704Z,34.87
2019-04-03T14:11:44.982Z,30.97
2019-04-03T14:14:15.617Z,33.77
2019-04-03T14:16:42.197Z,33.60
2019-04-03T14:19:11.615Z,34.30
2019-04-03T14:21:38.759Z,38.17
2019-04-03T14:24:08.326Z,33.90
2019-04-03T14:26:34.247Z,32.43
2019-04-03T14:29:01.254Z,40.53
2019-04-03T14:31:34.799Z,35.93
2019-04-03T14:33:57.364Z,38.20
2019-04-03T14:36:27.406Z,38.47
2019-04-03T14:38:56.158Z,34.53
2019-04-03T14:41:24.076Z,35.00
2019-04-03T14:43:52.022Z,34.53
2019-04-03T14:46:19.234Z,31.17
2019-04-03T14:48:46.958Z,35.83
2019-04-03T14:51:14.092Z,32.63
2019-04-03T14:53:41.427Z,39.97
2019-04-03T14:56:08.883Z,35.57
2019-04-03T14:58:36.246Z,32.97
2019-04-03T15:01:03.368Z,40.77
2019-04-03T15:03:30.273Z,39.00
2019-04-03T15:05:57.418Z,38.77
2019-04-03T15:08:24.445Z,36.30
2019-04-03T15:10:52.255Z,34.27
2019-04-03T15:13:19.751Z,37.33
2019-04-03T15:15:46.841Z,33.70
2019-04-03T15:18:14.194Z,36.07
2019-04-03T15:20:41.711Z,30.00
2019-04-03T15:23:08.760Z,38.20
2019-04-03T15:25:36.158Z,34.77
2019-04-03T15:28:03.854Z,32.57
2019-04-03T15:30:31.400Z,30.70
2019-04-03T15:32:58.174Z,37.40
2019-04-03T15:35:24.803Z,38.30
2019-04-03T15:37:52.346Z,33.27
2019-04-03T15:40:19.791Z,37.10
2019-04-03T15:42:46.908Z,36.00
2019-04-03T15:45:14.578Z,34.40
2019-04-03T15:47:45.906Z,34.13
2019-04-03T15:50:12.113Z,34.23
2019-04-03T15:52:39.171Z,31.23
2019-04-03T15:55:06.212Z,31.97
2019-04-03T15:57:33.591Z,35.50
2019-04-03T16:00:02.838Z,36.60
2019-04-03T16:02:33.326Z,36.33
2019-04-03T16:05:00.706Z,37.57
2019-04-03T16:07:27.822Z,33.73
2019-04-03T16:09:55.715Z,33.63
2019-04-03T16:12:23.439Z,37.40
2019-04-03T16:14:51.386Z,40.53
2019-04-03T16:17:19.224Z,34.40
2019-04-03T16:19:46.155Z,34.27
2019-04-03T16:22:12.815Z,37.40
2019-04-03T16:24:41.158Z,34.43
2019-04-03T16:27:08.482Z,40.23
2019-04-03T16:29:36.165Z,38.27
2019-04-03T16:32:03.560Z,40.87
2019-04-03T16:34:30.642Z,40.87
2019-04-03T16:36:57.745Z,43.47
2019-04-03T16:39:24.763Z,39.03
2019-04-03T16:41:51.507Z,44.90
2019-04-03T16:44:18.252Z,40.57
2019-04-03T16:46:47.099Z,36.53
2019-04-03T16:49:16.986Z,47.50
2019-04-03T16:51:43.720Z,40.27
2019-04-03T16:54:12.465Z,46.37
2019-04-03T16:56:39.560Z,42.63
2019-04-03T16:59:08.130Z,42.97
2019-04-03T17:01:35.451Z,41.43
2019-04-03T17:04:03.909Z,41.73
2019-04-03T17:06:30.654Z,40.50
2019-04-03T17:08:58.695Z,38.13
2019-04-03T17:11:26.875Z,42.20
2019-04-03T17:13:54.325Z,41.40
2019-04-03T17:16:21.911Z,37.30
2019-04-03T17:18:48.563Z,40.23
2019-04-03T17:21:15.340Z,39.00
2019-04-03T17:23:44.278Z,40.07
2019-04-03T17:26:11.292Z,44.67
2019-04-03T17:28:40.497Z,39.30
2019-04-03T17:31:07.532Z,41.70
2019-04-03T17:33:35.956Z,37.53
2019-04-03T17:36:03.323Z,44.33
2019-04-03T17:38:32.654Z,45.23
2019-04-03T17:40:58.831Z,40.60
2019-04-03T17:43:26.089Z,45.00
2019-04-03T17:45:52.842Z,44.83
2019-04-03T17:48:22.783Z,42.03
2019-04-03T17:50:50.039Z,44.03
2019-04-03T17:53:16.662Z,42.97
2019-04-03T17:55:45.345Z,41.60
2019-04-03T17:58:11.819Z,44.87
2019-04-03T18:00:38.454Z,43.10
2019-04-03T18:03:05.734Z,41.30
2019-04-03T18:05:33.275Z,46.20
2019-04-03T18:08:00.556Z,40.53
2019-04-03T18:10:27.214Z,43.70
2019-04-03T18:12:54.164Z,40.23
2019-04-03T18:15:20.819Z,38.97
2019-04-03T18:17:48.843Z,41.40
2019-04-03T18:20:15.791Z,40.73
2019-04-03T18:22:43.048Z,41.83
2019-04-03T18:25:11.019Z,42.87
2019-04-03T18:27:38.164Z,43.07
2019-04-03T18:30:07.161Z,42.60
2019-04-03T18:32:34.168Z,43.70
2019-04-03T18:35:00.839Z,46.43
2019-04-03T18:37:27.496Z,45.17
2019-04-03T18:39:54.496Z,45.50
2019-04-03T18:42:23.455Z,46.63
2019-04-03T18:44:51.284Z,41.53
2019-04-03T18:47:17.948Z,48.43
2019-04-03T18:49:46.636Z,45.83
2019-04-03T18:52:13.316Z,43.23
2019-04-03T18:54:42.505Z,41.30
2019-04-03T18:57:09.856Z,48.50
2019-04-03T18:59:36.486Z,42.90
2019-04-03T19:02:03.813Z,48.10
2019-04-03T19:04:31.116Z,48.10
2019-04-03T19:06:57.779Z,43.77
2019-04-03T19:09:24.429Z,49.30
2019-04-03T19:11:51.912Z,51.90
2019-04-03T19:14:27.025Z,46.50
2019-04-03T19:16:51.788Z,45.60
2019-04-03T19:19:18.339Z,55.43
2019-04-03T19:21:45.273Z,44.97
2019-04-03T19:24:12.310Z,44.50
2019-04-03T19:26:39.376Z,54.27
2019-04-03T19:29:06.357Z,49.53
2019-04-03T19:31:33.027Z,47.93
2019-04-03T19:34:00.926Z,42.23
2019-04-03T19:36:29.524Z,46.10
2019-04-03T19:38:56.242Z,53.63
2019-04-03T19:41:24.068Z,42.20
2019-04-03T19:43:54.990Z,50.40
2019-04-03T19:46:22.773Z,48.97
2019-04-03T19:48:51.636Z,49.80
2019-04-03T19:51:18.308Z,48.40
2019-04-03T19:53:49.306Z,50.90
2019-04-03T19:56:13.707Z,48.63
2019-04-03T19:58:41.130Z,47.70
2019-04-03T20:01:08.622Z,48.50
2019-04-03T20:03:35.333Z,45.73
2019-04-03T20:06:02.419Z,51.43
2019-04-03T20:08:30.018Z,45.13
2019-04-03T20:10:58.112Z,46.13
2019-04-03T20:13:27.840Z,51.57
2019-04-03T20:15:54.572Z,50.73
2019-04-03T20:18:22.228Z,48.87
2019-04-03T20:20:49.671Z,53.57
2019-04-03T20:23:17.743Z,49.97
2019-04-03T20:25:45.919Z,45.47
2019-04-03T20:28:14.563Z,50.83
2019-04-03T20:30:41.901Z,50.67
2019-04-03T20:33:11.419Z,56.77
2019-04-03T20:35:37.441Z,53.83
2019-04-03T20:38:04.943Z,60.57
2019-04-03T20:40:31.984Z,51.83
2019-04-03T20:42:59.336Z,54.40
2019-04-03T20:45:26.972Z,60.87
2019-04-03T20:47:53.693Z,52.33
2019-04-03T20:50:20.688Z,50.83
2019-04-03T20:52:48.077Z,66.70
2019-04-03T20:55:15.091Z,56.53
2019-04-03T20:57:54.520Z,52.70
2019-04-03T21:00:10.880Z,54.27
2019-04-03T21:02:37.631Z,53.50
2019-04-03T21:05:07.615Z,60.97
2019-04-03T21:07:33.495Z,57.10
2019-04-03T21:10:00.881Z,61.40
2019-04-03T21:12:29.705Z,67.47
2019-04-03T21:15:07.763Z,53.63
2019-04-03T21:17:26.913Z,58.17
2019-04-03T21:19:53.859Z,53.57
2019-04-03T21:22:20.545Z,55.77
2019-04-03T21:24:47.280Z,71.23
2019-04-03T21:27:13.932Z,59.40
2019-04-03T21:29:40.919Z,60.43
2019-04-03T21:32:10.501Z,56.97
2019-04-03T21:34:38.390Z,61.97
2019-04-03T21:37:05.087Z,66.20
2019-04-03T21:39:33.736Z,64.20
2019-04-03T21:42:00.253Z,70.77
2019-04-03T21:44:27.735Z,67.43
2019-04-03T21:46:54.371Z,66.70
2019-04-03T21:49:21.327Z,69.23
2019-04-03T21:51:47.967Z,67.97
2019-04-03T21:54:16.420Z,69.83
2019-04-03T21:56:43.149Z,65.63
2019-04-03T21:59:10.944Z,66.20
2019-04-03T22:01:38.141Z,67.53
2019-04-03T22:04:04.798Z,65.07
2019-04-03T22:06:31.531Z,64.80
2019-04-03T22:09:00.482Z,65.50
2019-04-03T22:11:27.183Z,62.60
2019-04-03T22:13:53.839Z,68.80
2019-04-03T22:16:21.928Z,71.17
2019-04-03T22:18:48.575Z,67.77
2019-04-03T22:21:16.303Z,71.90
2019-04-03T22:23:44.059Z,73.47
2019-04-03T22:26:11.142Z,69.23
2019-04-03T22:28:39.298Z,73.20
2019-04-03T22:31:05.939Z,64.87
2019-04-03T22:33:32.588Z,64.97
2019-04-03T22:35:59.211Z,70.33
2019-04-03T22:38:25.907Z,68.10
2019-04-03T22:40:52.543Z,66.20
2019-04-03T22:43:19.934Z,76.13
2019-04-03T22:45:46.860Z,68.93
2019-04-03T22:48:13.552Z,67.97
2019-04-03T22:50:40.205Z,66.10
2019-04-03T22:53:10.412Z,60.53
2019-04-03T22:55:37.672Z,77.50
2019-04-03T22:58:04.406Z,73.07
2019-04-03T23:00:31.443Z,57.90
2019-04-03T23:03:00.899Z,67.20
2019-04-03T23:05:29.381Z,65.50
2019-04-03T23:07:56.356Z,76.23
2019-04-03T23:10:23.185Z,78.13
2019-04-03T23:12:51.636Z,65.80
2019-04-03T23:15:18.624Z,71.83
2019-04-03T23:17:45.442Z,74.47
2019-04-03T23:20:12.310Z,65.33
2019-04-03T23:22:39.587Z,72.90
2019-04-03T23:25:06.439Z,78.20
2019-04-03T23:27:33.978Z,72.77
2019-04-03T23:30:01.595Z,69.07
2019-04-03T23:32:29.354Z,75.10
2019-04-03T23:34:57.004Z,81.70
2019-04-03T23:37:24.775Z,71.37
2019-04-03T23:39:52.809Z,75.63
2019-04-03T23:42:19.512Z,64.30
2019-04-03T23:44:46.223Z,72.93
2019-04-03T23:47:16.355Z,70.13
2019-04-03T23:49:42.480Z,71.07
2019-04-03T23:52:10.454Z,77.83
2019-04-03T23:54:37.551Z,74.47
2019-04-03T23:57:05.256Z,71.13
2019-04-03T23:59:32.199Z,74.57
